Kezdőlap
METAR-TAF:

METAR-TAF

Repülőterek :

Pointe-Noire, Kongó

földrajzi szélesség: 04-49S, földrajzi hosszúság: 011-54E, magasság: 17 m

Jelenlegi meteorológiai megfigyelések

A jelentés 1 órával és 14 perccel ezelõtt készült, 15:00 UTC
Dél-délnyugati szél 10 kt
Hőmérséklet 25°C
Páratartalom 74%
Légköri nyomás 1013 hPa
Látótávolság 10 km, vagy több
Szórványos felhőzet 1300 lábon

METAR: FCPP 181500Z 21010KT 9999 SCT013 25/20 Q1013 NOSIG

Idő: 17:14 (16:14 UTC)

Előrejelzés

A jelentés 5 órával és 14 perccel ezelõtt készült, 11:00 UTC
Az előrejelzés 18-én 12 óra UTC és 19-én 12 óra UTC között érvényes
Dél-délnyugati szél 4 kt
Látótávolság: 8000 m
Szórványos felhőzet 2000 lábon
Valószínűség 30%
19-én 05 óra UTC és 19-én 09 óra UTC között
Látótávolság: 3000 m
Párásság

TAF: FCPP 181100Z 1812/1912 20004KT 8000 SCT020 PROB30 1905/1909 3000 BR

Meteorológiai megfigyelések és előrejelzések több, mint 4000 repülőtéren (METAR és TAF jelentéseket).

A térképen piros és sárga pontok jelzik az elérhető meteorológiai állomásokat.

Mozgassa az egeret a pont fölött, hogy megjelenjen az állomás neve.

Azután kattintson az időjárási megfigyelések és előrejelzések megtekintéséhez.

A térkép megváltoztatása: kattintson a fekete keresztel jelölt zöld gombra ráközelítéshez, a vonallal jelölt zöld gombra távolításhoz, vagy a zöld nyilakra a szomszédos térképek eléréséhez.


METAR-TAF: